Moby Aki — IBVV — position and weather

sailwx.info

Track history (hours):
 
Tides and Currents Weather Stations Pressure Air Temp Water Temp Dewpoint Dewpoint Depression Visibility Wind Speed Wind Dir Waves Ship Positions

Moby Aki

Last reported at 2018-Feb-19 07:58 UTC. Time now 2018-Feb-19 08:25 UTC.
Position N 43°33' E 010°18'.

Length 175 m; draft 6.9 m.

Type: Ship. MMSI: 247132400.

Date/timePositionNaut miles runAvg speedWind from/ knotsBaromVisibWave heightAir tempDewpointWater temp
2018-Feb-19 07:58N 43°33' E 010°18'0 0.0
2018-Feb-19 07:28N 43°33' E 010°18'0 0.0
2018-Feb-19 06:58N 43°33' E 010°18'0 0.0
2018-Feb-19 06:28N 43°33' E 010°18'0 0.0
2018-Feb-19 05:58N 43°33' E 010°18'0 0.8
2018-Feb-19 05:31N 43°33' E 010°17'5 9.8
2018-Feb-19 05:00N 43°29' E 010°13'1019.2
2018-Feb-19 04:30N 43°20' E 010°08'918.6
2018-Feb-19 04:01N 43°12' E 010°04'1018.8
2018-Feb-19 03:30N 43°02' E 010°02'1 0.0
2018-Feb-17 22:30N 43°01' E 010°02'1019.7
2018-Feb-17 22:00N 43°11' E 010°04'1019.5
2018-Feb-17 21:30N 43°21' E 010°08'1019.5
2018-Feb-17 21:00N 43°30' E 010°12'610.6
2018-Feb-17 20:29N 43°33' E 010°18'0 0.0
2018-Feb-17 19:59N 43°33' E 010°18'0 0.0
2018-Feb-17 19:29N 43°33' E 010°18'0 0.0
2018-Feb-17 18:59N 43°33' E 010°18'0 0.0
2018-Feb-17 18:29N 43°33' E 010°18'0 0.0
2018-Feb-17 17:56N 43°33' E 010°18'0 0.0
2018-Feb-17 17:29N 43°33' E 010°18'0 0.0
2018-Feb-17 16:59N 43°33' E 010°18'0 0.0
2018-Feb-17 16:25N 43°33' E 010°18'0 0.0
2018-Feb-17 15:58N 43°33' E 010°18'0 0.0
2018-Feb-17 15:28N 43°33' E 010°18'0 0.0
2018-Feb-17 14:58N 43°33' E 010°18'0 0.0
2018-Feb-17 14:28N 43°33' E 010°18'0 0.0
2018-Feb-17 13:58N 43°33' E 010°18'0 0.0
2018-Feb-17 13:28N 43°33' E 010°18'0 0.0
2018-Feb-17 12:58N 43°33' E 010°18'0 0.0
2018-Feb-17 12:28N 43°33' E 010°18'0 0.0
2018-Feb-17 12:01N 43°33' E 010°18'0 0.0
2018-Feb-17 11:30N 43°33' E 010°18'0 0.0
2018-Feb-17 11:00N 43°33' E 010°18'0 0.0
2018-Feb-17 10:27N 43°33' E 010°18'0 0.0
2018-Feb-17 10:00N 43°33' E 010°18'0 0.0
2018-Feb-17 09:30N 43°33' E 010°18'0 0.0
2018-Feb-17 09:00N 43°33' E 010°18'0 0.0
2018-Feb-17 08:30N 43°33' E 010°18'0 0.0
2018-Feb-17 08:00N 43°33' E 010°18'0 0.0
2018-Feb-17 07:27N 43°33' E 010°18'0 0.0
2018-Feb-17 07:00N 43°33' E 010°18'0 0.0
2018-Feb-17 06:24N 43°33' E 010°18'0 0.0
2018-Feb-17 05:59N 43°33' E 010°18'0 0.7
2018-Feb-17 05:31N 43°33' E 010°18'510.8
2018-Feb-17 05:00N 43°29' E 010°13'1019.6
2018-Feb-17 04:30N 43°19' E 010°10'1019.5
2018-Feb-17 04:00N 43°10' E 010°08'16 0.6
2018-Feb-15 22:59N 42°55' E 009°58'1019.8
2018-Feb-15 22:30N 43°04' E 010°02'1020.0
2018-Feb-15 22:00N 43°14' E 010°05'1019.8
2018-Feb-15 21:30N 43°23' E 010°09'918.5
2018-Feb-15 21:00N 43°32' E 010°14'3 5.6
2018-Feb-15 20:27N 43°33' E 010°18'0 0.0
2018-Feb-15 20:00N 43°33' E 010°18'0 0.0
2018-Feb-15 19:30N 43°33' E 010°18'0 0.0
2018-Feb-15 19:00N 43°33' E 010°18'0 0.0
2018-Feb-15 18:30N 43°33' E 010°18'0 0.0
2018-Feb-15 18:00N 43°33' E 010°18'0 0.0
2018-Feb-15 17:30N 43°33' E 010°18'0 0.0
2018-Feb-15 17:00N 43°33' E 010°18'0 0.0
2018-Feb-15 16:29N 43°33' E 010°18'0 0.0
2018-Feb-15 15:59N 43°33' E 010°18'0 0.0
2018-Feb-15 15:29N 43°33' E 010°18'0 0.0
2018-Feb-15 14:59N 43°33' E 010°18'0 0.0
2018-Feb-15 14:29N 43°33' E 010°18'0 0.0
2018-Feb-15 13:59N 43°33' E 010°18'0 0.0
2018-Feb-15 13:29N 43°33' E 010°18'0 0.0
2018-Feb-15 12:56N 43°33' E 010°18'0 0.0
2018-Feb-15 12:29N 43°33' E 010°18'0 0.0
2018-Feb-15 11:59N 43°33' E 010°18'0 0.0
2018-Feb-15 11:29N 43°33' E 010°18'0 0.0
2018-Feb-15 10:59N 43°33' E 010°18'0 0.0
2018-Feb-15 10:29N 43°33' E 010°18'0 0.0
2018-Feb-15 09:59N 43°33' E 010°18'0 0.0
2018-Feb-15 09:29N 43°33' E 010°18'0 0.0
2018-Feb-15 08:59N 43°33' E 010°18'0 0.0
2018-Feb-15 08:29N 43°33' E 010°18'0 0.0
2018-Feb-15 07:59N 43°33' E 010°18'0 0.0
2018-Feb-15 07:26N 43°33' E 010°18'0 0.0
2018-Feb-15 06:59N 43°33' E 010°18'0 0.0
2018-Feb-15 06:23N 43°33' E 010°18'0 0.0
2018-Feb-15 05:59N 43°33' E 010°18'1 1.4
2018-Feb-15 05:31N 43°33' E 010°17'510.5
2018-Feb-15 05:00N 43°29' E 010°12'918.8
2018-Feb-15 04:31N 43°20' E 010°12'918.8
2018-Feb-15 04:01N 43°11' E 010°10'1019.1
2018-Feb-15 03:29N 43°01' E 010°06'5 0.2
2018-Feb-13 23:01N 42°58' E 010°01'120.1
2018-Feb-13 22:59N 42°58' E 010°01'1020.2
2018-Feb-13 22:30N 43°08' E 010°04'1020.3
2018-Feb-13 22:00N 43°17' E 010°08'1020.3
2018-Feb-13 21:30N 43°27' E 010°11'714.2
2018-Feb-13 21:01N 43°33' E 010°17'0 0.9
2018-Feb-13 20:28N 43°33' E 010°18'0 0.0
2018-Feb-13 19:58N 43°33' E 010°18'0 0.0
2018-Feb-13 19:25N 43°33' E 010°18'0 0.0
2018-Feb-13 18:58N 43°33' E 010°18'0 0.0
2018-Feb-13 18:28N 43°33' E 010°18'0 0.0
2018-Feb-13 17:58N 43°33' E 010°18'0 0.0
2018-Feb-13 17:28N 43°33' E 010°18'0 0.0
2018-Feb-13 16:58N 43°33' E 010°18'0 0.0
2018-Feb-13 16:28N 43°33' E 010°18'0 0.0
2018-Feb-13 15:58N 43°33' E 010°18'0 0.0
2018-Feb-13 15:28N 43°33' E 010°18'0 0.0
2018-Feb-13 15:01N 43°33' E 010°18'0 0.0
2018-Feb-13 14:30N 43°33' E 010°18'0 0.0
2018-Feb-13 14:00N 43°33' E 010°18'0 0.0
2018-Feb-13 13:30N 43°33' E 010°18'0 0.0
2018-Feb-13 13:00N 43°33' E 010°18'0 0.0
2018-Feb-13 12:30N 43°33' E 010°18'0 0.0
2018-Feb-13 12:00N 43°33' E 010°18'0 0.0
2018-Feb-13 11:24N 43°33' E 010°18'0 0.0
2018-Feb-13 11:00N 43°33' E 010°18'0 0.0
2018-Feb-13 10:30N 43°33' E 010°18'0 0.0
2018-Feb-13 09:59N 43°33' E 010°18'0 0.0
2018-Feb-13 09:29N 43°33' E 010°18'0 0.0
2018-Feb-13 08:59N 43°33' E 010°18'0 0.0
2018-Feb-13 08:29N 43°33' E 010°18'0 0.0
2018-Feb-13 07:59N 43°33' E 010°18'0 0.0
2018-Feb-13 07:29N 43°33' E 010°18'0 0.0
2018-Feb-13 06:59N 43°33' E 010°18'0 0.0
2018-Feb-13 06:29N 43°33' E 010°18'0 0.0
2018-Feb-13 05:59N 43°33' E 010°18'1 2.5
2018-Feb-13 05:30N 43°32' E 010°17'612.5
2018-Feb-13 05:00N 43°27' E 010°12'1019.9
2018-Feb-13 04:30N 43°18' E 010°08'1020.3
2018-Feb-13 04:00N 43°08' E 010°05'11 0.4
2018-Feb-11 22:39N 42°57' E 010°03'420.5
2018-Feb-11 22:29N 43°01' E 010°04'1020.3
2018-Feb-11 22:00N 43°10' E 010°06'1020.3
2018-Feb-11 21:30N 43°20' E 010°09'1020.4
2018-Feb-11 21:00N 43°30' E 010°12'5 8.7
2018-Feb-11 20:25N 43°33' E 010°18'0 0.0
2018-Feb-11 19:58N 43°33' E 010°18'0 0.0
2018-Feb-11 19:28N 43°33' E 010°18'0 0.0
2018-Feb-11 19:00N 43°33' E 010°18'0 0.0
2018-Feb-11 18:30N 43°33' E 010°18'0 0.0
2018-Feb-11 18:00N 43°33' E 010°18'0 0.0
2018-Feb-11 17:30N 43°33' E 010°18'0 0.0
2018-Feb-11 17:00N 43°33' E 010°18'0 0.0
2018-Feb-11 16:30N 43°33' E 010°18'0 0.0
2018-Feb-11 16:00N 43°33' E 010°18'0 0.0
2018-Feb-11 15:30N 43°33' E 010°18'0 0.0
2018-Feb-11 15:00N 43°33' E 010°18'0 0.0
2018-Feb-11 14:30N 43°33' E 010°18'0 0.0
2018-Feb-11 14:00N 43°33' E 010°18'0 0.0
2018-Feb-11 13:30N 43°33' E 010°18'0 0.0
2018-Feb-11 12:56N 43°33' E 010°18'0 0.0
2018-Feb-11 12:29N 43°33' E 010°18'0 0.0
2018-Feb-11 11:59N 43°33' E 010°18'0 0.0
2018-Feb-11 11:29N 43°33' E 010°18'0 0.0
2018-Feb-11 10:59N 43°33' E 010°18'0 0.0
2018-Feb-11 10:26N 43°33' E 010°18'0 0.0
2018-Feb-11 10:00N 43°33' E 010°18'0 0.0
2018-Feb-11 09:27N 43°33' E 010°18'0 0.0
2018-Feb-11 09:00N 43°33' E 010°18'0 0.0
2018-Feb-11 08:29N 43°33' E 010°18'0 0.0
2018-Feb-11 07:59N 43°33' E 010°18'0 0.0
2018-Feb-11 07:29N 43°33' E 010°18'0 0.0
2018-Feb-11 06:59N 43°33' E 010°18'0 0.0
2018-Feb-11 06:29N 43°33' E 010°18'0 0.0
2018-Feb-11 05:59N 43°33' E 010°18'0 0.0
2018-Feb-11 05:29N 43°33' E 010°18'1 2.6
2018-Feb-11 05:00N 43°32' E 010°17'714.4
2018-Feb-11 04:31N 43°26' E 010°12'1020.4
2018-Feb-11 04:01N 43°16' E 010°11'918.8
2018-Feb-11 03:31N 43°07' E 010°08'11 0.4
2018-Feb-09 22:43N 42°57' E 009°60'3811.9
2018-Feb-09 19:31N 43°33' E 010°18'0 0.0
2018-Feb-09 19:00N 43°33' E 010°18'0 0.0
2018-Feb-09 18:30N 43°33' E 010°18'  
Track history (hours):
 
Tides and Currents Weather Stations Pressure Air Temp Water Temp Dewpoint Dewpoint Depression Visibility Wind Speed Wind Dir Waves Ship Positions

Moby Aki

Last reported at 2018-Feb-19 07:58 UTC. Time now 2018-Feb-19 08:25 UTC.
Position N 43°33' E 010°18'.

Length 175 m; draft 6.9 m.

Type: Ship. MMSI: 247132400.

Date/timePositionNaut miles runAvg speedWind from/ knotsBaromVisibWave heightAir tempDewpointWater temp
2018-Feb-19 07:58N 43°33' E 010°18'0 0.0
2018-Feb-19 07:28N 43°33' E 010°18'0 0.0
2018-Feb-19 06:58N 43°33' E 010°18'0 0.0
2018-Feb-19 06:28N 43°33' E 010°18'0 0.0
2018-Feb-19 05:58N 43°33' E 010°18'0 0.8
2018-Feb-19 05:31N 43°33' E 010°17'5 9.8
2018-Feb-19 05:00N 43°29' E 010°13'1019.2
2018-Feb-19 04:30N 43°20' E 010°08'918.6
2018-Feb-19 04:01N 43°12' E 010°04'1018.8
2018-Feb-19 03:30N 43°02' E 010°02'1 0.0
2018-Feb-17 22:30N 43°01' E 010°02'1019.7
2018-Feb-17 22:00N 43°11' E 010°04'1019.5
2018-Feb-17 21:30N 43°21' E 010°08'1019.5
2018-Feb-17 21:00N 43°30' E 010°12'610.6
2018-Feb-17 20:29N 43°33' E 010°18'0 0.0
2018-Feb-17 19:59N 43°33' E 010°18'0 0.0
2018-Feb-17 19:29N 43°33' E 010°18'0 0.0
2018-Feb-17 18:59N 43°33' E 010°18'0 0.0
2018-Feb-17 18:29N 43°33' E 010°18'0 0.0
2018-Feb-17 17:56N 43°33' E 010°18'0 0.0
2018-Feb-17 17:29N 43°33' E 010°18'0 0.0
2018-Feb-17 16:59N 43°33' E 010°18'0 0.0
2018-Feb-17 16:25N 43°33' E 010°18'0 0.0
2018-Feb-17 15:58N 43°33' E 010°18'0 0.0
2018-Feb-17 15:28N 43°33' E 010°18'0 0.0
2018-Feb-17 14:58N 43°33' E 010°18'0 0.0
2018-Feb-17 14:28N 43°33' E 010°18'0 0.0
2018-Feb-17 13:58N 43°33' E 010°18'0 0.0
2018-Feb-17 13:28N 43°33' E 010°18'0 0.0
2018-Feb-17 12:58N 43°33' E 010°18'0 0.0
2018-Feb-17 12:28N 43°33' E 010°18'0 0.0
2018-Feb-17 12:01N 43°33' E 010°18'0 0.0
2018-Feb-17 11:30N 43°33' E 010°18'0 0.0
2018-Feb-17 11:00N 43°33' E 010°18'0 0.0
2018-Feb-17 10:27N 43°33' E 010°18'0 0.0
2018-Feb-17 10:00N 43°33' E 010°18'0 0.0
2018-Feb-17 09:30N 43°33' E 010°18'0 0.0
2018-Feb-17 09:00N 43°33' E 010°18'0 0.0
2018-Feb-17 08:30N 43°33' E 010°18'0 0.0
2018-Feb-17 08:00N 43°33' E 010°18'0 0.0
2018-Feb-17 07:27N 43°33' E 010°18'0 0.0
2018-Feb-17 07:00N 43°33' E 010°18'0 0.0
2018-Feb-17 06:24N 43°33' E 010°18'0 0.0
2018-Feb-17 05:59N 43°33' E 010°18'0 0.7
2018-Feb-17 05:31N 43°33' E 010°18'510.8
2018-Feb-17 05:00N 43°29' E 010°13'1019.6
2018-Feb-17 04:30N 43°19' E 010°10'1019.5
2018-Feb-17 04:00N 43°10' E 010°08'16 0.6
2018-Feb-15 22:59N 42°55' E 009°58'1019.8
2018-Feb-15 22:30N 43°04' E 010°02'1020.0
2018-Feb-15 22:00N 43°14' E 010°05'1019.8
2018-Feb-15 21:30N 43°23' E 010°09'918.5
2018-Feb-15 21:00N 43°32' E 010°14'3 5.6
2018-Feb-15 20:27N 43°33' E 010°18'0 0.0
2018-Feb-15 20:00N 43°33' E 010°18'0 0.0
2018-Feb-15 19:30N 43°33' E 010°18'0 0.0
2018-Feb-15 19:00N 43°33' E 010°18'0 0.0
2018-Feb-15 18:30N 43°33' E 010°18'0 0.0
2018-Feb-15 18:00N 43°33' E 010°18'0 0.0
2018-Feb-15 17:30N 43°33' E 010°18'0 0.0
2018-Feb-15 17:00N 43°33' E 010°18'0 0.0
2018-Feb-15 16:29N 43°33' E 010°18'0 0.0
2018-Feb-15 15:59N 43°33' E 010°18'0 0.0
2018-Feb-15 15:29N 43°33' E 010°18'0 0.0
2018-Feb-15 14:59N 43°33' E 010°18'0 0.0
2018-Feb-15 14:29N 43°33' E 010°18'0 0.0
2018-Feb-15 13:59N 43°33' E 010°18'0 0.0
2018-Feb-15 13:29N 43°33' E 010°18'0 0.0
2018-Feb-15 12:56N 43°33' E 010°18'0 0.0
2018-Feb-15 12:29N 43°33' E 010°18'0 0.0
2018-Feb-15 11:59N 43°33' E 010°18'0 0.0
2018-Feb-15 11:29N 43°33' E 010°18'0 0.0
2018-Feb-15 10:59N 43°33' E 010°18'0 0.0
2018-Feb-15 10:29N 43°33' E 010°18'0 0.0
2018-Feb-15 09:59N 43°33' E 010°18'0 0.0
2018-Feb-15 09:29N 43°33' E 010°18'0 0.0
2018-Feb-15 08:59N 43°33' E 010°18'0 0.0
2018-Feb-15 08:29N 43°33' E 010°18'0 0.0
2018-Feb-15 07:59N 43°33' E 010°18'0 0.0
2018-Feb-15 07:26N 43°33' E 010°18'0 0.0
2018-Feb-15 06:59N 43°33' E 010°18'0 0.0
2018-Feb-15 06:23N 43°33' E 010°18'0 0.0
2018-Feb-15 05:59N 43°33' E 010°18'1 1.4
2018-Feb-15 05:31N 43°33' E 010°17'510.5
2018-Feb-15 05:00N 43°29' E 010°12'918.8
2018-Feb-15 04:31N 43°20' E 010°12'918.8
2018-Feb-15 04:01N 43°11' E 010°10'1019.1
2018-Feb-15 03:29N 43°01' E 010°06'5 0.2
2018-Feb-13 23:01N 42°58' E 010°01'120.1
2018-Feb-13 22:59N 42°58' E 010°01'1020.2
2018-Feb-13 22:30N 43°08' E 010°04'1020.3
2018-Feb-13 22:00N 43°17' E 010°08'1020.3
2018-Feb-13 21:30N 43°27' E 010°11'714.2
2018-Feb-13 21:01N 43°33' E 010°17'0 0.9
2018-Feb-13 20:28N 43°33' E 010°18'0 0.0
2018-Feb-13 19:58N 43°33' E 010°18'0 0.0
2018-Feb-13 19:25N 43°33' E 010°18'0 0.0
2018-Feb-13 18:58N 43°33' E 010°18'0 0.0
2018-Feb-13 18:28N 43°33' E 010°18'0 0.0
2018-Feb-13 17:58N 43°33' E 010°18'0 0.0
2018-Feb-13 17:28N 43°33' E 010°18'0 0.0
2018-Feb-13 16:58N 43°33' E 010°18'0 0.0
2018-Feb-13 16:28N 43°33' E 010°18'0 0.0
2018-Feb-13 15:58N 43°33' E 010°18'0 0.0
2018-Feb-13 15:28N 43°33' E 010°18'0 0.0
2018-Feb-13 15:01N 43°33' E 010°18'0 0.0
2018-Feb-13 14:30N 43°33' E 010°18'0 0.0
2018-Feb-13 14:00N 43°33' E 010°18'0 0.0
2018-Feb-13 13:30N 43°33' E 010°18'0 0.0
2018-Feb-13 13:00N 43°33' E 010°18'0 0.0
2018-Feb-13 12:30N 43°33' E 010°18'0 0.0
2018-Feb-13 12:00N 43°33' E 010°18'0 0.0
2018-Feb-13 11:24N 43°33' E 010°18'0 0.0
2018-Feb-13 11:00N 43°33' E 010°18'0 0.0
2018-Feb-13 10:30N 43°33' E 010°18'0 0.0
2018-Feb-13 09:59N 43°33' E 010°18'0 0.0
2018-Feb-13 09:29N 43°33' E 010°18'0 0.0
2018-Feb-13 08:59N 43°33' E 010°18'0 0.0
2018-Feb-13 08:29N 43°33' E 010°18'0 0.0
2018-Feb-13 07:59N 43°33' E 010°18'0 0.0
2018-Feb-13 07:29N 43°33' E 010°18'0 0.0
2018-Feb-13 06:59N 43°33' E 010°18'0 0.0
2018-Feb-13 06:29N 43°33' E 010°18'0 0.0
2018-Feb-13 05:59N 43°33' E 010°18'1 2.5
2018-Feb-13 05:30N 43°32' E 010°17'612.5
2018-Feb-13 05:00N 43°27' E 010°12'1019.9
2018-Feb-13 04:30N 43°18' E 010°08'1020.3
2018-Feb-13 04:00N 43°08' E 010°05'11 0.4
2018-Feb-11 22:39N 42°57' E 010°03'420.5
2018-Feb-11 22:29N 43°01' E 010°04'1020.3
2018-Feb-11 22:00N 43°10' E 010°06'1020.3
2018-Feb-11 21:30N 43°20' E 010°09'1020.4
2018-Feb-11 21:00N 43°30' E 010°12'5 8.7
2018-Feb-11 20:25N 43°33' E 010°18'0 0.0
2018-Feb-11 19:58N 43°33' E 010°18'0 0.0
2018-Feb-11 19:28N 43°33' E 010°18'0 0.0
2018-Feb-11 19:00N 43°33' E 010°18'0 0.0
2018-Feb-11 18:30N 43°33' E 010°18'0 0.0
2018-Feb-11 18:00N 43°33' E 010°18'0 0.0
2018-Feb-11 17:30N 43°33' E 010°18'0 0.0
2018-Feb-11 17:00N 43°33' E 010°18'0 0.0
2018-Feb-11 16:30N 43°33' E 010°18'0 0.0
2018-Feb-11 16:00N 43°33' E 010°18'0 0.0
2018-Feb-11 15:30N 43°33' E 010°18'0 0.0
2018-Feb-11 15:00N 43°33' E 010°18'0 0.0
2018-Feb-11 14:30N 43°33' E 010°18'0 0.0
2018-Feb-11 14:00N 43°33' E 010°18'0 0.0
2018-Feb-11 13:30N 43°33' E 010°18'0 0.0
2018-Feb-11 12:56N 43°33' E 010°18'0 0.0
2018-Feb-11 12:29N 43°33' E 010°18'0 0.0
2018-Feb-11 11:59N 43°33' E 010°18'0 0.0
2018-Feb-11 11:29N 43°33' E 010°18'0 0.0
2018-Feb-11 10:59N 43°33' E 010°18'0 0.0
2018-Feb-11 10:26N 43°33' E 010°18'0 0.0
2018-Feb-11 10:00N 43°33' E 010°18'0 0.0
2018-Feb-11 09:27N 43°33' E 010°18'0 0.0
2018-Feb-11 09:00N 43°33' E 010°18'0 0.0
2018-Feb-11 08:29N 43°33' E 010°18'0 0.0
2018-Feb-11 07:59N 43°33' E 010°18'0 0.0
2018-Feb-11 07:29N 43°33' E 010°18'0 0.0
2018-Feb-11 06:59N 43°33' E 010°18'0 0.0
2018-Feb-11 06:29N 43°33' E 010°18'0 0.0
2018-Feb-11 05:59N 43°33' E 010°18'0 0.0
2018-Feb-11 05:29N 43°33' E 010°18'1 2.6
2018-Feb-11 05:00N 43°32' E 010°17'714.4
2018-Feb-11 04:31N 43°26' E 010°12'1020.4
2018-Feb-11 04:01N 43°16' E 010°11'918.8
2018-Feb-11 03:31N 43°07' E 010°08'11 0.4
2018-Feb-09 22:43N 42°57' E 009°60'3811.9
2018-Feb-09 19:31N 43°33' E 010°18'0 0.0
2018-Feb-09 19:00N 43°33' E 010°18'0 0.0
2018-Feb-09 18:30N 43°33' E 010°18'  

Dump ship's entire track history